Time;durP1;ratioP1;P1;durP2;ratioP2;P2;SDS_P1;SDS_P2;PMS_P1;PMS_P2;Temp;Humidity;BMP_temperature;BMP_pressure;BME280_temperature;BME280_humidity;BME280_pressure;Samples;Min_cycle;Max_cycle;Signal;HPM_P1;HPM_P2
2024/04/14 19:59:21;;;;;;;4.63;2.25;;;18.90;63.20;;;;;;5384622;26;20051;-88
2024/04/14 20:01:48;;;;;;;3.17;2.20;;;18.80;63.40;;;;;;5412651;26;20091;-87
2024/04/14 20:04:15;;;;;;;5.00;2.40;;;18.70;63.80;;;;;;5417610;26;20003;-88
2024/04/14 20:06:42;;;;;;;3.35;2.33;;;18.70;64.10;;;;;;5402565;26;20453;-87
2024/04/14 20:09:11;;;;;;;3.00;1.90;;;18.70;64.40;;;;;;5404153;26;20004;-87
2024/04/14 20:11:39;;;;;;;5.47;2.42;;;18.60;64.40;;;;;;5410387;26;20000;-88
2024/04/14 20:14:06;;;;;;;5.68;2.22;;;18.60;64.80;;;;;;5400711;26;20404;-88
2024/04/14 20:16:34;;;;;;;4.35;2.20;;;18.50;64.70;;;;;;5416121;26;20007;-87
2024/04/14 20:19:01;;;;;;;5.60;2.40;;;18.50;64.70;;;;;;5416307;26;20072;-88
2024/04/14 20:21:28;;;;;;;4.60;2.20;;;18.40;64.90;;;;;;5419191;26;19999;-88
2024/04/14 20:23:55;;;;;;;5.95;2.40;;;18.30;65.20;;;;;;5419547;26;20003;-87
2024/04/14 20:26:21;;;;;;;8.30;2.63;;;18.30;65.40;;;;;;5419093;26;20307;-88
2024/04/14 20:28:48;;;;;;;6.63;2.50;;;18.30;65.70;;;;;;5418840;26;20016;-86
2024/04/14 20:31:16;;;;;;;3.97;2.33;;;18.20;65.90;;;;;;5403532;26;20000;-87
2024/04/14 20:33:45;;;;;;;4.90;2.63;;;18.20;66.10;;;;;;5387821;26;20074;-87
2024/04/14 20:36:14;;;;;;;4.35;2.35;;;18.10;66.50;;;;;;5405308;26;20509;-88
2024/04/14 20:38:43;;;;;;;4.13;2.10;;;18.10;67.00;;;;;;5417506;26;20011;-89
2024/04/14 20:41:10;;;;;;;8.43;2.58;;;18.00;67.00;;;;;;5388424;26;20066;-88
2024/04/14 20:43:37;;;;;;;3.42;2.30;;;17.90;66.80;;;;;;5394556;26;20028;-88
2024/04/14 20:46:07;;;;;;;5.53;2.40;;;17.90;67.80;;;;;;5383442;26;20007;-88
2024/04/14 20:48:34;;;;;;;6.00;2.70;;;17.80;67.50;;;;;;5436431;26;20004;-87
2024/04/14 20:51:04;;;;;;;4.82;2.80;;;17.80;67.90;;;;;;5431836;26;20000;-94
2024/04/14 20:53:31;;;;;;;5.30;2.35;;;17.70;69.00;;;;;;5386642;26;20439;-93
2024/04/14 20:56:01;;;;;;;4.32;2.40;;;17.70;68.50;;;;;;5435492;26;19999;-86
2024/04/14 20:58:28;;;;;;;7.72;2.63;;;17.70;69.40;;;;;;5408491;26;20003;-89
2024/04/14 21:00:56;;;;;;;6.88;2.42;;;17.60;70.40;;;;;;5403726;26;20018;-87
2024/04/14 21:03:23;;;;;;;6.88;2.70;;;17.60;70.00;;;;;;5413361;26;20019;-89
2024/04/14 21:05:50;;;;;;;8.05;2.85;;;17.50;70.50;;;;;;5391948;26;20012;-87
2024/04/14 21:08:17;;;;;;;5.35;2.33;;;17.50;70.60;;;;;;5391673;26;20073;-88
2024/04/14 21:10:44;;;;;;;5.82;2.40;;;17.40;71.00;;;;;;5388770;26;19997;-87
2024/04/14 21:13:11;;;;;;;4.00;2.58;;;17.30;70.80;;;;;;5418644;26;19999;-87
2024/04/14 21:15:41;;;;;;;2.97;2.50;;;17.30;71.00;;;;;;5418227;26;20013;-86
2024/04/14 21:18:08;;;;;;;6.15;3.05;;;17.30;72.30;;;;;;5393027;26;20032;-87
2024/04/14 21:20:35;;;;;;;4.32;2.70;;;17.20;71.90;;;;;;5420717;26;20035;-88
2024/04/14 21:23:02;;;;;;;4.78;2.95;;;17.20;72.60;;;;;;5400910;26;20007;-86
2024/04/14 21:25:29;;;;;;;6.13;2.78;;;17.10;72.20;;;;;;5394872;26;20519;-87
2024/04/14 21:27:56;;;;;;;4.47;2.63;;;17.10;72.90;;;;;;5401991;26;20007;-87
2024/04/14 21:30:23;;;;;;;5.13;2.70;;;17.10;73.50;;;;;;5409961;26;20015;-88
2024/04/14 21:32:51;;;;;;;4.78;3.13;;;17.10;73.50;;;;;;5382759;26;20079;-87
2024/04/14 21:35:18;;;;;;;4.50;2.78;;;17.00;73.20;;;;;;5382898;26;20000;-88
2024/04/14 21:37:46;;;;;;;6.10;2.95;;;16.90;74.50;;;;;;5407929;26;20004;-87
2024/04/14 21:40:13;;;;;;;5.22;3.15;;;16.90;75.10;;;;;;5414577;26;20009;-88
2024/04/14 21:42:40;;;;;;;4.43;2.88;;;16.80;74.70;;;;;;5413088;26;20027;-87
2024/04/14 21:45:07;;;;;;;5.22;2.90;;;16.70;74.40;;;;;;5410314;26;20073;-86
2024/04/14 21:47:36;;;;;;;6.00;2.92;;;16.70;75.60;;;;;;5417950;26;20069;-87
2024/04/14 21:50:05;;;;;;;4.68;3.35;;;16.70;77.00;;;;;;5409374;26;20350;-87
2024/04/14 21:52:32;;;;;;;5.43;2.90;;;16.70;77.70;;;;;;5382541;26;20016;-88
2024/04/14 21:55:01;;;;;;;6.80;3.03;;;16.60;77.40;;;;;;5388469;26;20012;-87
2024/04/14 21:57:28;;;;;;;7.32;2.70;;;16.50;78.30;;;;;;5389249;26;20003;-88
2024/04/14 21:59:57;;;;;;;6.32;3.33;;;16.50;78.70;;;;;;5399561;26;20011;-88
2024/04/14 22:02:25;;;;;;;5.93;3.50;;;16.40;79.40;;;;;;5390889;26;19996;-87
2024/04/14 22:04:52;;;;;;;8.85;3.10;;;16.40;79.00;;;;;;5382667;26;20011;-88
2024/04/14 22:07:21;;;;;;;4.07;2.80;;;16.30;79.80;;;;;;5392476;26;20334;-88
2024/04/14 22:09:48;;;;;;;5.93;3.10;;;16.20;80.60;;;;;;5414019;26;20495;-87
2024/04/14 22:12:15;;;;;;;5.90;3.13;;;16.20;80.30;;;;;;5404557;26;20000;-88
2024/04/14 22:14:42;;;;;;;5.68;3.08;;;16.20;80.80;;;;;;5418194;26;20010;-87
2024/04/14 22:17:10;;;;;;;4.95;3.30;;;16.10;80.80;;;;;;5412854;26;20016;-88
2024/04/14 22:19:37;;;;;;;5.85;3.30;;;16.00;80.30;;;;;;5397917;26;20019;-88
2024/04/14 22:22:04;;;;;;;4.70;3.20;;;15.90;82.10;;;;;;5417132;26;20011;-87
2024/04/14 22:24:31;;;;;;;8.55;3.28;;;15.90;82.90;;;;;;5413905;26;20023;-89
2024/04/14 22:26:59;;;;;;;6.70;3.42;;;15.90;84.10;;;;;;5403657;26;20073;-89
2024/04/14 22:29:25;;;;;;;5.93;3.40;;;15.90;85.00;;;;;;5403827;26;20069;-89
2024/04/14 22:31:53;;;;;;;8.77;3.90;;;15.80;85.20;;;;;;5413442;26;20000;-88
2024/04/14 22:34:20;;;;;;;4.55;3.20;;;15.70;86.10;;;;;;5410297;26;20000;-88
2024/04/14 22:36:49;;;;;;;7.65;3.72;;;15.60;85.20;;;;;;5404162;26;20439;-87
2024/04/14 22:39:17;;;;;;;7.13;3.40;;;15.60;85.20;;;;;;5385776;26;20000;-88
2024/04/14 22:41:44;;;;;;;7.20;3.53;;;15.50;87.40;;;;;;5381963;26;20004;-86
2024/04/14 22:44:13;;;;;;;7.10;3.45;;;15.50;87.40;;;;;;5413270;26;20817;-87
2024/04/14 22:46:40;;;;;;;4.43;3.22;;;15.50;87.70;;;;;;5390388;26;20011;-88
2024/04/14 22:49:07;;;;;;;6.70;3.13;;;15.40;87.90;;;;;;5417809;26;20075;-87
2024/04/14 22:51:34;;;;;;;8.80;3.10;;;15.40;89.10;;;;;;5409106;26;20023;-86
2024/04/14 22:54:03;;;;;;;5.10;3.00;;;15.30;89.50;;;;;;5417099;26;20069;-88
2024/04/14 22:56:30;;;;;;;8.07;3.13;;;15.30;90.40;;;;;;5417046;26;19996;-87
2024/04/14 22:58:59;;;;;;;8.52;3.55;;;15.30;90.40;;;;;;5417027;26;20008;-87
2024/04/14 23:01:26;;;;;;;3.05;2.75;;;15.30;90.60;;;;;;5417301;26;20000;-87
2024/04/14 23:03:56;;;;;;;6.78;3.28;;;15.20;90.50;;;;;;5390525;26;20001;-87
2024/04/14 23:06:23;;;;;;;3.92;2.95;;;15.20;91.00;;;;;;5383516;26;20003;-88
2024/04/14 23:08:50;;;;;;;4.20;3.22;;;15.10;90.60;;;;;;5391607;26;20442;-87
2024/04/14 23:11:19;;;;;;;4.88;2.88;;;15.10;91.20;;;;;;5381471;26;20066;-87
2024/04/14 23:13:49;;;;;;;5.15;3.17;;;15.00;91.10;;;;;;5383001;26;20007;-87
2024/04/14 23:16:21;;;;;;;7.97;3.55;;;15.00;91.60;;;;;;5381407;26;20446;-87
2024/04/14 23:18:50;;;;;;;5.30;2.85;;;15.00;90.80;;;;;;5410214;26;19995;-88
2024/04/14 23:21:17;;;;;;;6.45;2.75;;;14.90;91.20;;;;;;5395962;26;20008;-88
2024/04/14 23:23:44;;;;;;;7.22;3.35;;;14.90;91.80;;;;;;5391382;26;20015;-87
2024/04/14 23:26:13;;;;;;;6.00;3.13;;;14.90;92.00;;;;;;5382732;26;19992;-87
2024/04/14 23:28:41;;;;;;;9.82;3.40;;;14.80;91.90;;;;;;5402843;26;20010;-87
2024/04/14 23:31:10;;;;;;;8.15;3.30;;;14.80;91.80;;;;;;5388155;26;20012;-88
2024/04/14 23:33:37;;;;;;;4.95;2.92;;;14.80;92.60;;;;;;5381734;26;20155;-88
2024/04/14 23:36:06;;;;;;;6.35;2.90;;;14.80;92.80;;;;;;5394018;26;20000;-87
2024/04/14 23:38:33;;;;;;;4.50;3.00;;;14.80;92.70;;;;;;5408248;26;20007;-88
2024/04/14 23:41:02;;;;;;;4.57;3.00;;;14.80;92.70;;;;;;5389391;26;20320;-87
2024/04/14 23:43:31;;;;;;;6.28;3.33;;;14.80;92.70;;;;;;5399444;26;20073;-88
2024/04/14 23:46:00;;;;;;;6.15;2.90;;;14.80;92.10;;;;;;5395730;26;20081;-87
2024/04/14 23:48:30;;;;;;;5.10;2.85;;;14.80;92.90;;;;;;5398182;26;20360;-87
2024/04/14 23:51:00;;;;;;;6.63;2.97;;;14.80;92.80;;;;;;5380952;26;20011;-88
2024/04/14 23:53:27;;;;;;;4.25;2.55;;;14.80;92.40;;;;;;5385636;26;20516;-88
2024/04/14 23:55:54;;;;;;;5.80;3.00;;;14.80;92.60;;;;;;5393702;26;20004;-88
2024/04/14 23:58:21;;;;;;;4.20;2.83;;;14.80;92.60;;;;;;5417641;26;20006;-87
